Airfield :
LOGIN :

Register | Disclaimer

   EN    FR    IT 

 










Legend :    VFR   Marginal VFR   IFR   Intensive IFR   Very Intensive IFR
Visi :
Ceiling :
>= 8 km
>= 3000ft
5 to 8 km
1000 to 3000 ft
1500m to 5 km
500 to 1000 ft
800 to 1500m
200 to 500 ft
< 800m
< 200 ft
Symbols :   Thunderstorms  Fog  Heavy snow  Heavy precipitations  Wind > 20 kt
SIGMETs :     Misc.  Thunderstorms  Icing  Turbulence  Mountain Waves  Volcanic Ashes






- Airport Elevation : 336 ft
- IATA code : GCI


EGJB - Guernsey

CURRENT METAR :
  • 290450Z 25017KT 9999 BKN016 13/10 Q1015

EXPIRED METARs :
  • 290420Z 25020KT 9999 FEW010 BKN016 13/10 Q1015
  • 290350Z 25016KT 9999 FEW010 BKN014 13/10 Q1015
  • 290250Z 26019KT 9999 VCSH FEW015 13/10 Q1015

TAF TAF EGJB
Valid from the 29 at 03:00 until the 29 at 12:00 UTC


290157Z 2903/2912 26020KT 9999 SCT016 BKN030
BECMG 2904/2906 23020KT BKN012
PROB40
TEMPO 2905/2912 24022G32KT 6000 -RA BKN007
PROB30
TEMPO 2907/2910 4000 RADZ BR BKN004
ATIS : +44 1481 238 957



MET'MAP, your aeronautical weather chart ! - Copyright ORBIFLY December 2007 - Disclaimer

ORBIFLY MET'MAP TEAM :

Programming & Development : Alexandra Zaïnal
Concept & original design : Baudouin d'Aumeries
Assistance for programming : Marc-Olivier Méhu
Technical & hardware support : Manuel Goepfert

Contact : metmap@orbifly.com




SOURCES & CREDITS :

   NOAA